createdAt,value
2023-01-17T00:02:44.563Z,97024.06
2023-01-17T00:05:32.090Z,97023.55
2023-01-17T00:08:20.291Z,97011.13
2023-01-17T00:10:49.312Z,96991.20
2023-01-17T00:13:21.052Z,96989.17
2023-01-17T00:15:50.333Z,96997.67
2023-01-17T00:18:22.675Z,97009.10
2023-01-17T00:21:13.554Z,97014.54
2023-01-17T00:23:57.197Z,97007.39
2023-01-17T00:26:26.973Z,97006.36
2023-01-17T00:28:58.434Z,97006.54
2023-01-17T00:31:30.316Z,97001.08
2023-01-17T00:33:58.901Z,97004.82
2023-01-17T00:36:34.257Z,97001.41
2023-01-17T00:39:09.476Z,97002.42
2023-01-17T00:41:40.948Z,97000.54
2023-01-17T00:44:28.872Z,96999.86
2023-01-17T00:47:16.229Z,97000.20
2023-01-17T00:50:03.729Z,97005.45
2023-01-17T00:52:54.100Z,97004.08
2023-01-17T00:55:44.944Z,97006.62
2023-01-17T00:58:33.357Z,97016.96
2023-01-17T01:01:25.090Z,97024.78
2023-01-17T01:04:12.819Z,97028.35
2023-01-17T01:07:00.480Z,97027.66
2023-01-17T01:09:48.532Z,97027.98
2023-01-17T01:12:35.547Z,97029.84
2023-01-17T01:15:33.346Z,97034.74
2023-01-17T01:18:25.622Z,97033.02
2023-01-17T01:21:12.943Z,97038.80
2023-01-17T01:24:00.624Z,97046.79
2023-01-17T01:26:49.053Z,97047.48
2023-01-17T01:29:46.436Z,97045.10
2023-01-17T01:32:33.756Z,97039.84
2023-01-17T01:35:04.998Z,97041.20
2023-01-17T01:37:34.205Z,97041.87
2023-01-17T01:40:05.129Z,97040.67
2023-01-17T01:42:34.308Z,97037.09
2023-01-17T01:45:15.695Z,97035.39
2023-01-17T01:47:45.204Z,97032.67
2023-01-17T01:50:15.029Z,97031.65
2023-01-17T01:52:54.986Z,97030.30
2023-01-17T01:55:31.859Z,97026.71
2023-01-17T01:58:04.336Z,97026.88
2023-01-17T02:00:40.628Z,97020.41
2023-01-17T02:03:21.599Z,97015.16
2023-01-17T02:05:54.193Z,97011.75
2023-01-17T02:08:24.785Z,97010.21
2023-01-17T02:10:54.178Z,97003.58
2023-01-17T02:13:23.535Z,97002.04
2023-01-17T02:16:03.774Z,97001.20
2023-01-17T02:18:48.268Z,97001.88
2023-01-17T02:21:24.099Z,97004.77
2023-01-17T02:24:21.691Z,97005.46
2023-01-17T02:26:59.858Z,97001.70
2023-01-17T02:30:03.755Z,97003.59
2023-01-17T02:32:56.414Z,96996.79
2023-01-17T02:35:34.912Z,96994.59
2023-01-17T02:38:17.499Z,96987.10
2023-01-17T02:40:49.582Z,96983.54
2023-01-17T02:43:21.770Z,96983.67
2023-01-17T02:45:55.344Z,96983.67
2023-01-17T02:48:28.167Z,96980.25
2023-01-17T02:51:24.379Z,96981.74
2023-01-17T02:54:17.640Z,96984.62
2023-01-17T02:56:57.285Z,96985.13
2023-01-17T02:59:40.199Z,96993.62
2023-01-17T03:02:20.133Z,96999.73
2023-01-17T03:04:55.403Z,97009.40
2023-01-17T03:07:29.481Z,97007.67
2023-01-17T03:10:02.160Z,97015.98
2023-01-17T03:12:33.522Z,97024.16
2023-01-17T03:15:12.435Z,97032.66
2023-01-17T03:17:45.830Z,97027.55
2023-01-17T03:20:18.137Z,97026.55
2023-01-17T03:22:47.245Z,97029.09
2023-01-17T03:25:19.878Z,97032.86
2023-01-17T03:27:49.183Z,97039.66
2023-01-17T03:30:21.146Z,97047.47
2023-01-17T03:32:51.089Z,97052.58
2023-01-17T03:35:23.024Z,97055.45
2023-01-17T03:37:52.017Z,97055.28
2023-01-17T03:40:21.632Z,97053.27
2023-01-17T03:42:50.675Z,97047.53
2023-01-17T03:45:20.023Z,97049.39
2023-01-17T03:47:48.807Z,97057.88
2023-01-17T03:50:20.801Z,97056.19
2023-01-17T03:52:53.041Z,97057.20
2023-01-17T03:55:21.975Z,97055.48
2023-01-17T03:57:51.745Z,97055.34
2023-01-17T04:00:24.844Z,97061.30
2023-01-17T04:02:54.810Z,97062.70
2023-01-17T04:05:24.888Z,97063.39
2023-01-17T04:07:53.993Z,97063.89
2023-01-17T04:10:26.348Z,97070.52
2023-01-17T04:12:55.212Z,97072.55
2023-01-17T04:15:24.206Z,97072.05
2023-01-17T04:17:53.313Z,97074.45
2023-01-17T04:20:32.062Z,97076.66
2023-01-17T04:23:01.864Z,97072.24
2023-01-17T04:25:31.597Z,97075.97
2023-01-17T04:28:03.752Z,97059.14
2023-01-17T04:30:33.334Z,97072.98
2023-01-17T04:33:05.832Z,97078.77
2023-01-17T04:35:35.439Z,97075.54
2023-01-17T04:38:08.331Z,97081.67
2023-01-17T04:40:37.177Z,97082.68
2023-01-17T04:43:06.444Z,97082.34
2023-01-17T04:45:36.660Z,97080.66
2023-01-17T04:48:13.615Z,97082.20
2023-01-17T04:50:42.611Z,97083.23
2023-01-17T04:53:12.067Z,97081.38
2023-01-17T04:55:50.737Z,97069.45
2023-01-17T04:58:20.497Z,97057.02
2023-01-17T05:00:51.871Z,97055.82
2023-01-17T05:03:22.503Z,97060.39
2023-01-17T05:05:51.696Z,97070.25
2023-01-17T05:08:21.197Z,97075.67
2023-01-17T05:10:50.439Z,97078.04
2023-01-17T05:13:19.525Z,97077.52
2023-01-17T05:15:49.363Z,97080.58
2023-01-17T05:18:22.148Z,97087.58
2023-01-17T05:20:54.312Z,97091.48
2023-01-17T05:23:24.830Z,97095.23
2023-01-17T05:25:57.130Z,97097.62
2023-01-17T05:28:27.126Z,97100.84
2023-01-17T05:30:56.324Z,97101.69
2023-01-17T05:33:28.339Z,97106.12
2023-01-17T05:35:57.326Z,97104.42
2023-01-17T05:38:32.633Z,97106.98
2023-01-17T05:41:04.510Z,97108.35
2023-01-17T05:43:34.053Z,97107.20
2023-01-17T05:46:14.162Z,97110.77
2023-01-17T05:48:46.196Z,97109.73
2023-01-17T05:51:18.311Z,97109.88
2023-01-17T05:53:50.282Z,97106.31
2023-01-17T05:56:19.188Z,97103.60
2023-01-17T05:58:51.664Z,97098.52
2023-01-17T06:01:24.314Z,97099.69
2023-01-17T06:03:53.966Z,97100.52
2023-01-17T06:06:26.442Z,97102.02
2023-01-17T06:08:56.032Z,97108.82
2023-01-17T06:11:26.273Z,97109.14
2023-01-17T06:13:58.256Z,97110.16
2023-01-17T06:16:27.335Z,97108.10
2023-01-17T06:18:56.270Z,97109.44
2023-01-17T06:21:25.361Z,97106.71
2023-01-17T06:23:58.996Z,97117.08
2023-01-17T06:26:27.884Z,97118.95
2023-01-17T06:28:56.811Z,97117.08
2023-01-17T06:31:31.821Z,97112.31
2023-01-17T06:34:04.399Z,97112.28
2023-01-17T06:36:34.716Z,97112.80
2023-01-17T06:39:04.352Z,97109.08
2023-01-17T06:41:36.860Z,97105.17
2023-01-17T06:44:12.759Z,97105.33
2023-01-17T06:46:50.931Z,97106.66
2023-01-17T06:49:20.051Z,97114.17
2023-01-17T06:51:49.218Z,97116.92
2023-01-17T06:54:21.753Z,97119.30
2023-01-17T06:56:53.679Z,97117.77
2023-01-17T06:59:22.758Z,97123.21
2023-01-17T07:01:51.970Z,97122.88
2023-01-17T07:04:21.404Z,97129.36
2023-01-17T07:06:50.814Z,97132.96
2023-01-17T07:09:42.610Z,97140.46
2023-01-17T07:12:12.727Z,97146.25
2023-01-17T07:14:44.396Z,97152.86
2023-01-17T07:17:19.341Z,97154.40
2023-01-17T07:19:48.412Z,97154.92
2023-01-17T07:22:20.478Z,97152.20
2023-01-17T07:24:50.220Z,97151.18
2023-01-17T07:27:19.525Z,97147.77
2023-01-17T07:29:49.314Z,97152.19
2023-01-17T07:32:19.112Z,97153.86
2023-01-17T07:34:48.136Z,97149.79
2023-01-17T07:37:22.572Z,97153.70
2023-01-17T07:39:54.686Z,97151.34
2023-01-17T07:42:25.767Z,97150.66
2023-01-17T07:44:57.625Z,97152.51
2023-01-17T07:47:27.243Z,97152.70
2023-01-17T07:49:57.128Z,97156.96
2023-01-17T07:52:26.173Z,97158.50
2023-01-17T07:54:58.424Z,97159.52
2023-01-17T07:57:39.934Z,97161.56
2023-01-17T08:00:27.124Z,97164.12
2023-01-17T08:03:00.944Z,97166.00
2023-01-17T08:05:33.621Z,97168.73
2023-01-17T08:08:03.430Z,97164.66
2023-01-17T08:10:32.622Z,97170.29
2023-01-17T08:13:01.759Z,97175.56
2023-01-17T08:15:46.852Z,97172.17
2023-01-17T08:18:16.334Z,97180.38
2023-01-17T08:20:46.799Z,97185.15
2023-01-17T08:23:19.357Z,97188.06
2023-01-17T08:25:48.624Z,97191.30
2023-01-17T08:28:20.035Z,97192.84
2023-01-17T08:30:51.935Z,97190.98
2023-01-17T08:33:21.597Z,97187.61
2023-01-17T08:35:54.074Z,97195.98
2023-01-17T08:38:23.524Z,97197.17
2023-01-17T08:40:52.360Z,97199.23
2023-01-17T08:43:21.639Z,97201.92
2023-01-17T08:45:55.601Z,97204.50
2023-01-17T08:48:27.585Z,97209.45
2023-01-17T08:51:04.848Z,97216.80
2023-01-17T08:53:34.192Z,97218.67
2023-01-17T08:56:06.367Z,97221.08
2023-01-17T08:58:36.501Z,97221.44
2023-01-17T09:01:07.873Z,97220.77
2023-01-17T09:03:40.837Z,97224.56
2023-01-17T09:06:21.423Z,97228.84
2023-01-17T09:08:54.304Z,97226.30
2023-01-17T09:11:23.827Z,97228.18
2023-01-17T09:13:53.869Z,97234.16
2023-01-17T09:16:22.927Z,97233.85
2023-01-17T09:18:56.129Z,97232.70
2023-01-17T09:21:25.767Z,97238.34
2023-01-17T09:23:56.805Z,97229.32
2023-01-17T09:26:28.896Z,97230.34
2023-01-17T09:29:02.326Z,97235.95
2023-01-17T09:31:37.226Z,97238.31
2023-01-17T09:34:07.969Z,97246.66
2023-01-17T09:36:45.868Z,97248.18
2023-01-17T09:39:15.458Z,97249.21
2023-01-17T09:41:47.272Z,97250.59
2023-01-17T09:44:30.864Z,97253.51
2023-01-17T09:47:06.830Z,97250.14
2023-01-17T09:49:48.819Z,97242.81
2023-01-17T09:52:22.666Z,97236.84
2023-01-17T09:54:52.848Z,97233.24
2023-01-17T09:57:42.797Z,97226.92
2023-01-17T10:00:31.816Z,97224.53
2023-01-17T10:03:50.920Z,97223.48
2023-01-17T10:06:29.595Z,97223.13
2023-01-17T10:09:25.891Z,97224.13
2023-01-17T10:12:21.803Z,97225.99
2023-01-17T10:15:15.110Z,97226.50
2023-01-17T10:17:54.251Z,97229.39
2023-01-17T10:20:42.640Z,97229.55
2023-01-17T10:23:37.913Z,97227.14
2023-01-17T10:26:23.408Z,97228.81
2023-01-17T10:29:02.624Z,97227.77
2023-01-17T10:31:42.332Z,97231.14
2023-01-17T10:34:18.376Z,97232.50
2023-01-17T10:36:51.608Z,97238.30
2023-01-17T10:39:23.536Z,97244.27
2023-01-17T10:41:55.749Z,97242.90
2023-01-17T10:44:33.094Z,97240.67
2023-01-17T10:47:12.788Z,97248.02
2023-01-17T10:49:52.311Z,97247.52
2023-01-17T10:52:33.562Z,97253.14
2023-01-17T10:55:34.416Z,97254.52
2023-01-17T10:58:08.759Z,97254.67
2023-01-17T11:00:45.029Z,97249.21
2023-01-17T11:03:20.943Z,97242.69
2023-01-17T11:06:20.774Z,97244.90
2023-01-17T11:08:55.739Z,97241.80
2023-01-17T11:11:30.423Z,97243.48
2023-01-17T11:14:01.811Z,97244.98
2023-01-17T11:16:36.695Z,97234.89
2023-01-17T11:19:16.564Z,97232.46
2023-01-17T11:21:58.112Z,97233.11
2023-01-17T11:24:32.764Z,97230.69
2023-01-17T11:27:07.139Z,97231.37
2023-01-17T11:29:38.373Z,97224.88
2023-01-17T11:32:31.494Z,97222.09
2023-01-17T11:35:14.854Z,97215.88
2023-01-17T11:37:51.717Z,97211.05
2023-01-17T11:40:46.101Z,97209.44
2023-01-17T11:43:28.718Z,97201.00
2023-01-17T11:46:17.262Z,97202.99
2023-01-17T11:48:51.439Z,97201.10
2023-01-17T11:51:28.660Z,97199.19
2023-01-17T11:54:13.524Z,97193.31
2023-01-17T11:56:51.631Z,97193.11
2023-01-17T11:59:29.407Z,97189.48
2023-01-17T12:02:21.424Z,97189.30
2023-01-17T12:05:02.661Z,97193.23
2023-01-17T12:07:48.453Z,97193.98
2023-01-17T12:10:23.547Z,97191.98
2023-01-17T12:13:20.571Z,97190.28
2023-01-17T12:16:01.526Z,97187.68
2023-01-17T12:18:50.218Z,97189.55
2023-01-17T12:21:28.474Z,97199.79
2023-01-17T12:24:23.413Z,97200.00
2023-01-17T12:27:06.606Z,97199.67
2023-01-17T12:30:04.008Z,97200.12
2023-01-17T12:32:52.510Z,97200.23
2023-01-17T12:35:27.334Z,97200.20
2023-01-17T12:38:05.216Z,97207.05
2023-01-17T12:40:45.648Z,97202.24
2023-01-17T12:43:22.584Z,97196.89
2023-01-17T12:45:54.593Z,97193.65
2023-01-17T12:48:30.219Z,97186.16
2023-01-17T12:51:19.003Z,97185.51
2023-01-17T12:53:56.195Z,97188.02
2023-01-17T12:56:30.867Z,97188.30
2023-01-17T12:59:15.960Z,97189.27
2023-01-17T13:01:57.083Z,97189.09
2023-01-17T13:04:30.610Z,97182.02
2023-01-17T13:07:13.131Z,97179.91
2023-01-17T13:09:44.452Z,97178.55
2023-01-17T13:12:26.631Z,97177.91
2023-01-17T13:14:58.696Z,97175.65
2023-01-17T13:17:38.760Z,97170.80
2023-01-17T13:20:28.725Z,97167.35
2023-01-17T13:23:05.995Z,97166.66
2023-01-17T13:25:51.369Z,97176.07
2023-01-17T13:28:35.474Z,97188.05
2023-01-17T13:31:33.208Z,97197.78
2023-01-17T13:34:50.508Z,97199.05
2023-01-17T13:37:43.820Z,97209.60
2023-01-17T13:40:39.029Z,97212.40
2023-01-17T13:43:16.279Z,97211.06
2023-01-17T13:45:55.167Z,97211.07
2023-01-17T13:48:34.066Z,97217.90
2023-01-17T13:51:07.718Z,97220.30
2023-01-17T13:53:58.538Z,97224.98
2023-01-17T13:56:35.960Z,97229.48
2023-01-17T13:59:28.611Z,97241.45
2023-01-17T14:02:01.000Z,97254.95
2023-01-17T14:05:20.094Z,97268.95
2023-01-17T14:07:58.878Z,97284.38
2023-01-17T14:10:37.257Z,97295.30
2023-01-17T14:13:25.599Z,97302.48
2023-01-17T14:16:04.917Z,97311.25
2023-01-17T14:18:41.962Z,97316.44
2023-01-17T14:21:26.177Z,97321.48
2023-01-17T14:24:04.150Z,97332.68
2023-01-17T14:26:41.003Z,97336.69
2023-01-17T14:29:52.024Z,97337.63
2023-01-17T14:32:24.163Z,97341.98
2023-01-17T14:35:02.907Z,97347.17
2023-01-17T14:37:48.659Z,97346.20
2023-01-17T14:40:26.105Z,97348.80
2023-01-17T14:43:01.550Z,97346.26
2023-01-17T14:45:33.357Z,97349.19
2023-01-17T14:48:06.195Z,97345.45
2023-01-17T14:50:39.246Z,97342.23
2023-01-17T14:53:17.121Z,97347.01
2023-01-17T14:55:59.761Z,97354.35
2023-01-17T14:58:31.263Z,97358.10
2023-01-17T15:01:03.229Z,97362.36
2023-01-17T15:03:45.897Z,97364.06
2023-01-17T15:06:20.001Z,97367.29
2023-01-17T15:08:53.742Z,97364.38
2023-01-17T15:11:25.671Z,97368.30
2023-01-17T15:14:01.069Z,97364.53
2023-01-17T15:16:37.130Z,97360.09
2023-01-17T15:19:16.298Z,97360.59
2023-01-17T15:21:54.233Z,97365.17
2023-01-17T15:24:26.984Z,97361.93
2023-01-17T15:26:57.037Z,97358.70
2023-01-17T15:29:29.156Z,97358.55
2023-01-17T15:31:59.713Z,97353.44
2023-01-17T15:34:30.753Z,97346.95
2023-01-17T15:37:03.385Z,97342.52
2023-01-17T15:39:35.485Z,97338.75
2023-01-17T15:42:07.807Z,97336.35
2023-01-17T15:44:47.921Z,97330.70
2023-01-17T15:47:31.454Z,97321.84
2023-01-17T15:50:05.912Z,97313.83
2023-01-17T15:52:48.837Z,97308.70
2023-01-17T15:55:26.969Z,97303.92
2023-01-17T15:57:56.764Z,97298.46
2023-01-17T16:00:36.350Z,97293.51
2023-01-17T16:03:22.494Z,97292.80
2023-01-17T16:05:57.295Z,97288.84
2023-01-17T16:08:39.313Z,97288.30
2023-01-17T16:11:16.988Z,97291.02
2023-01-17T16:13:49.757Z,97289.14
2023-01-17T16:16:25.300Z,97286.23
2023-01-17T16:19:00.692Z,97285.20
2023-01-17T16:21:31.434Z,97285.33
2023-01-17T16:24:02.486Z,97286.31
2023-01-17T16:26:32.032Z,97285.09
2023-01-17T16:29:01.446Z,97283.66
2023-01-17T16:31:33.562Z,97280.40
2023-01-17T16:34:03.133Z,97278.69
2023-01-17T16:36:34.470Z,97281.23
2023-01-17T16:39:04.310Z,97279.84
2023-01-17T16:41:33.256Z,97275.92
2023-01-17T16:44:04.816Z,97277.73
2023-01-17T16:46:37.568Z,97274.91
2023-01-17T16:49:09.708Z,97271.54
2023-01-17T16:51:39.257Z,97263.86
2023-01-17T16:54:08.378Z,97265.70
2023-01-17T16:56:37.680Z,97267.59
2023-01-17T16:59:10.326Z,97267.82
2023-01-17T17:01:42.823Z,97258.56
2023-01-17T17:04:13.333Z,97256.12
2023-01-17T17:06:48.563Z,97253.56
2023-01-17T17:09:18.061Z,97254.63
2023-01-17T17:11:47.825Z,97256.20
2023-01-17T17:14:17.544Z,97256.61
2023-01-17T17:16:47.563Z,97254.16
2023-01-17T17:19:17.061Z,97251.16
2023-01-17T17:21:46.787Z,97256.65
2023-01-17T17:24:17.270Z,97268.23
2023-01-17T17:26:46.464Z,97264.63
2023-01-17T17:29:22.101Z,97268.17
2023-01-17T17:31:51.462Z,97274.86
2023-01-17T17:34:22.763Z,97280.85
2023-01-17T17:36:53.193Z,97290.55
2023-01-17T17:39:22.588Z,97293.61
2023-01-17T17:41:55.049Z,97295.27
2023-01-17T17:44:28.167Z,97299.65
2023-01-17T17:47:00.107Z,97306.30
2023-01-17T17:49:32.370Z,97309.69
2023-01-17T17:52:06.591Z,97317.30
2023-01-17T17:54:36.312Z,97317.18
2023-01-17T17:57:06.996Z,97319.35
2023-01-17T17:59:39.619Z,97320.08
2023-01-17T18:02:10.527Z,97328.05
2023-01-17T18:04:39.939Z,97328.45
2023-01-17T18:07:09.767Z,97334.65
2023-01-17T18:09:51.360Z,97338.31
2023-01-17T18:12:27.060Z,97335.18
2023-01-17T18:14:56.037Z,97326.55
2023-01-17T18:17:25.636Z,97330.16
2023-01-17T18:19:55.020Z,97341.85
2023-01-17T18:22:24.676Z,97337.49
2023-01-17T18:24:54.132Z,97336.23
2023-01-17T18:27:27.014Z,97332.58
2023-01-17T18:29:56.516Z,97336.95
2023-01-17T18:32:26.547Z,97331.02
2023-01-17T18:34:55.633Z,97327.31
2023-01-17T18:37:27.320Z,97330.98
2023-01-17T18:39:56.797Z,97329.38
2023-01-17T18:42:31.965Z,97333.66
2023-01-17T18:45:04.018Z,97333.84
2023-01-17T18:47:38.703Z,97336.51
2023-01-17T18:50:09.977Z,97342.30
2023-01-17T18:52:39.676Z,97345.77
2023-01-17T18:55:10.155Z,97343.20
2023-01-17T18:57:39.416Z,97347.08
2023-01-17T19:00:16.380Z,97346.58
2023-01-17T19:02:50.919Z,97339.81
2023-01-17T19:05:21.140Z,97338.52
2023-01-17T19:07:50.359Z,97333.92
2023-01-17T19:10:19.947Z,97332.32
2023-01-17T19:12:48.811Z,97330.20
2023-01-17T19:15:17.698Z,97319.73
2023-01-17T19:17:46.801Z,97313.12
2023-01-17T19:20:19.266Z,97310.27
2023-01-17T19:22:52.104Z,97309.47
2023-01-17T19:25:22.840Z,97300.85
2023-01-17T19:27:52.561Z,97291.19
2023-01-17T19:30:22.416Z,97288.82
2023-01-17T19:32:51.536Z,97285.55
2023-01-17T19:35:24.171Z,97282.81
2023-01-17T19:37:55.385Z,97273.61
2023-01-17T19:40:27.995Z,97274.73
2023-01-17T19:42:57.662Z,97273.40
2023-01-17T19:45:26.651Z,97274.63
2023-01-17T19:47:57.078Z,97275.62
2023-01-17T19:50:29.561Z,97273.80
2023-01-17T19:52:58.975Z,97270.98
2023-01-17T19:55:28.347Z,97273.79
2023-01-17T19:58:00.371Z,97272.98
2023-01-17T20:00:30.492Z,97272.15
2023-01-17T20:03:05.115Z,97277.25
2023-01-17T20:05:37.715Z,97279.48
2023-01-17T20:08:09.244Z,97268.25
2023-01-17T20:10:38.625Z,97266.10
2023-01-17T20:13:07.685Z,97273.08
2023-01-17T20:15:40.693Z,97271.52
2023-01-17T20:18:35.181Z,97268.21
2023-01-17T20:21:09.541Z,97271.31
2023-01-17T20:23:41.721Z,97280.42
2023-01-17T20:26:11.743Z,97285.35
2023-01-17T20:28:42.249Z,97291.46
2023-01-17T20:31:14.010Z,97290.20
2023-01-17T20:33:50.665Z,97277.26
2023-01-17T20:36:22.242Z,97272.80
2023-01-17T20:38:53.202Z,97268.00
2023-01-17T20:41:24.771Z,97265.92
2023-01-17T20:43:58.563Z,97267.94
2023-01-17T20:46:30.776Z,97268.70
2023-01-17T20:49:00.511Z,97269.58
2023-01-17T20:51:30.928Z,97264.70
2023-01-17T20:54:03.022Z,97260.31
2023-01-17T20:56:34.563Z,97258.16
2023-01-17T20:59:11.736Z,97251.56
2023-01-17T21:01:43.255Z,97249.23
2023-01-17T21:04:14.115Z,97241.95
2023-01-17T21:06:51.195Z,97237.41
2023-01-17T21:09:21.638Z,97235.91
2023-01-17T21:11:51.448Z,97227.26
2023-01-17T21:14:21.823Z,97227.45
2023-01-17T21:16:51.704Z,97236.58
2023-01-17T21:19:21.376Z,97243.15
2023-01-17T21:21:55.742Z,97245.64
2023-01-17T21:24:25.502Z,97253.75
2023-01-17T21:26:54.746Z,97262.55
2023-01-17T21:29:28.329Z,97266.69
2023-01-17T21:31:58.256Z,97263.20
2023-01-17T21:34:31.445Z,97259.30
2023-01-17T21:37:02.206Z,97258.98
2023-01-17T21:39:32.303Z,97252.76
2023-01-17T21:42:00.329Z,97252.05
2023-01-17T21:44:35.758Z,97249.30
2023-01-17T21:47:04.953Z,97247.56
2023-01-17T21:49:36.661Z,97255.16
2023-01-17T21:52:20.096Z,97257.89
2023-01-17T21:55:07.623Z,97250.13
2023-01-17T21:57:55.654Z,97247.33
2023-01-17T22:00:25.072Z,97247.61
2023-01-17T22:02:54.107Z,97248.30
2023-01-17T22:05:23.264Z,97246.45
2023-01-17T22:08:14.921Z,97247.62
2023-01-17T22:10:47.497Z,97252.11
2023-01-17T22:13:20.255Z,97260.64
2023-01-17T22:15:59.831Z,97259.66
2023-01-17T22:18:30.256Z,97255.04
2023-01-17T22:21:03.401Z,97252.79
2023-01-17T22:23:35.698Z,97249.76
2023-01-17T22:26:09.498Z,97249.49
2023-01-17T22:28:42.529Z,97244.56
2023-01-17T22:31:22.792Z,97240.20
2023-01-17T22:33:57.745Z,97233.70
2023-01-17T22:36:32.327Z,97227.22
2023-01-17T22:39:04.974Z,97221.48
2023-01-17T22:41:40.964Z,97220.73
2023-01-17T22:44:22.765Z,97219.29
2023-01-17T22:46:52.614Z,97219.96
2023-01-17T22:49:23.057Z,97220.06
2023-01-17T22:51:52.238Z,97225.55
2023-01-17T22:54:22.139Z,97224.34
2023-01-17T22:56:54.255Z,97224.16
2023-01-17T22:59:29.697Z,97218.75
2023-01-17T23:01:59.138Z,97210.11
2023-01-17T23:04:28.703Z,97206.29
2023-01-17T23:06:58.223Z,97206.52
2023-01-17T23:09:27.991Z,97198.77
2023-01-17T23:11:57.222Z,97200.75
2023-01-17T23:14:51.101Z,97198.31
2023-01-17T23:17:42.797Z,97195.03
2023-01-17T23:20:21.258Z,97190.75
2023-01-17T23:22:51.375Z,97183.71
2023-01-17T23:25:25.538Z,97182.36
2023-01-17T23:28:18.533Z,97175.98
2023-01-17T23:30:49.728Z,97170.95
2023-01-17T23:33:27.859Z,97166.30
2023-01-17T23:35:57.245Z,97160.93
2023-01-17T23:38:28.364Z,97156.48
2023-01-17T23:41:24.383Z,97153.19
2023-01-17T23:43:57.811Z,97144.58
2023-01-17T23:46:28.237Z,97142.52
2023-01-17T23:48:57.461Z,97140.73
2023-01-17T23:51:26.908Z,97135.04
2023-01-17T23:54:04.802Z,97132.36
2023-01-17T23:56:37.605Z,97131.00
2023-01-17T23:59:06.911Z,97129.83
